Tutayev, Russia
Current Conditions -  °F | °C
As of 8:00 PM on Friday 28 Nov 2014 (Local Time) from UUDL Reporting Station
Overcast Overcast  
Wind Chill: 11°   Ceiling: 500
Heat Index: 18°   Visibility: 6mi
Dew Point: 16°   Wind: 4mph
Humidity: 93%   Direction: 140°SE
Pressure: 30.65"   Gusts: NA
Location:  57.89°N, 39.55°E
Report Text: UUDL 281700Z 14002MPS 9999 OVC005 M08/M09 Q1038 NOSIG RMKQBB150 QFE770 23000060
Loading
Personal Weather Stations






























Interactive Weather Map New forecast layout! Learn more

10-Day Weather Forecast

Advertisements
Track Severe Weather on mobile